DW5679 Weather Reports


Display with metric or nautical units.
time (UTC)temp
F
wind
direction
speed
MPH
gust
MPH
rain 1hr
in
rain 24hr
in
rain mn
in
humidity
%
barometer
mb
20240624140027 84 135 0.0 0.0 0.00 0.00 0.00 82 1014.5
20240624140008 84 104 0.0 0.0 0.00 0.00 0.00 82 1015.1
20240624134532 83 135 0.0 1.0 0.00 0.00 0.00 82 1014.4
20240624134507 83 104 0.0 1.0 0.00 0.00 0.00 82 1015.1
20240624133018 82 139 0.0 0.0 0.00 0.00 0.00 83 1014.4
20240624133006 82 108 0.0 0.0 0.00 0.00 0.00 83 1015.1
20240624131545 82 139 0.0 0.0 0.00 0.00 0.00 86 1014.4
20240624131505 82 108 0.0 0.0 0.00 0.00 0.00 85 1014.9
20240624130048 81 136 0.0 0.0 0.00 0.00 0.00 88 1014.3
20240624130004 81 105 0.0 0.0 0.00 0.00 0.00 88 1014.7
20240624124540 80 129 0.0 1.0 0.00 0.00 0.00 89 1014.2
20240624124510 80 98 0.0 1.0 0.00 0.00 0.00 88 1014.7
20240624123038 78 123 0.0 0.0 0.00 0.00 0.00 92 1014.0
20240624123013 78 92 0.0 0.0 0.00 0.00 0.00 92 1014.5
20240624121537 78 123 0.0 0.0 0.00 0.00 0.00 92 1013.9
20240624121507 78 92 0.0 0.0 0.00 0.00 0.00 91 1014.4
20240624120036 77 123 0.0 1.0 0.00 0.00 0.00 92 1013.7
20240624120008 77 92 0.0 1.0 0.00 0.00 0.00 92 1014.2
20240624114602 78 132 0.0 1.0 0.00 0.00 0.00 92 1013.6
20240624114507 78 101 0.0 1.0 0.00 0.00 0.00 92 1014.1
20240624113034 77 127 0.0 1.0 0.00 0.00 0.00 93 1013.5
20240624113006 77 96 0.0 1.0 0.00 0.00 0.00 92 1014.0
20240624111536 78 132 0.0 0.0 0.00 0.00 0.00 92 1013.5
20240624111520 78 100 0.0 1.0 0.00 0.00 0.00 91 1014.0
20240624110031 77 140 0.0 1.0 0.00 0.00 0.00 93 1013.4
20240624110023 77 109 0.0 1.0 0.00 0.00 0.00 92 1013.9
20240624104531 77 133 0.0 1.0 0.00 0.00 0.00 95 1013.2
20240624104521 77 102 0.0 1.0 0.00 0.00 0.00 94 1013.7
20240624103034 77 127 0.0 0.0 0.00 0.00 0.00 94 1013.1
20240624103007 77 96 0.0 0.0 0.00 0.00 0.00 94 1013.6
20240624101603 77 127 0.0 0.0 0.00 0.00 0.00 93 1012.8
20240624101510 77 96 0.0 0.0 0.00 0.00 0.00 92 1013.4
20240624100031 77 127 0.0 0.0 0.00 0.00 0.00 94 1012.9
20240624100010 77 96 0.0 0.0 0.00 0.00 0.00 93 1013.4
20240624094516 78 127 0.0 0.0 0.00 0.00 0.00 93 1012.8
20240624094511 78 96 0.0 1.0 0.00 0.00 0.00 92 1013.4
20240624093014 77 127 0.0 1.0 0.00 0.00 0.00 95 1012.8
20240624093011 77 96 0.0 1.0 0.00 0.00 0.00 94 1013.4
20240624091517 77 141 0.0 0.0 0.00 0.00 0.00 92 1012.7
20240624091510 77 110 0.0 0.0 0.00 0.00 0.00 92 1013.2
20240624090011 77 141 0.0 0.0 0.00 0.00 0.00 92 1012.6
20240624084510 78 110 0.0 0.0 0.00 0.00 0.00 91 1013.1
20240624083106 79 141 0.0 1.0 0.00 0.00 0.00 91 1012.5
20240624083010 79 110 0.0 1.0 0.00 0.00 0.00 90 1013.0
20240624081506 79 105 0.0 1.0 0.00 0.00 0.00 91 1013.0
20240624080007 79 103 0.0 1.0 0.00 0.00 0.00 91 1013.0
20240624080004 79 134 0.0 1.0 0.00 0.00 0.00 91 1012.5
20240624074503 79 124 0.0 2.0 0.00 0.00 0.00 90 1012.4
20240624073003 79 103 0.0 1.0 0.00 0.00 0.00 90 1013.1
20240624071600 79 137 0.0 0.0 0.00 0.00 0.00 93 1012.5
20240624071506 79 106 0.0 0.0 0.00 0.00 0.00 92 1013.2
20240624070058 79 137 0.0 0.0 0.00 0.00 0.00 91 1012.7
20240624070006 79 106 0.0 0.0 0.00 0.00 0.00 90 1013.2
20240624064557 79 137 0.0 0.0 0.00 0.00 0.00 91 1012.7
20240624064508 79 106 0.0 0.0 0.00 0.00 0.00 90 1013.3
20240624063055 79 137 0.0 0.0 0.00 0.00 0.00 90 1012.7
20240624063003 79 106 0.0 0.0 0.00 0.00 0.00 90 1013.4
20240624061604 79 137 0.0 0.0 0.00 0.00 0.00 90 1012.9
20240624061511 79 106 0.0 0.0 0.00 0.00 0.00 90 1013.4
20240624060053 79 137 0.0 0.0 0.00 0.00 0.00 91 1012.8
20240624060004 79 106 0.0 0.0 0.00 0.00 0.00 90 1013.4
20240624054552 79 137 0.0 0.0 0.00 0.00 0.00 91 1012.8
20240624054506 79 106 0.0 0.0 0.00 0.00 0.00 90 1013.5
20240624053050 80 137 0.0 0.0 0.00 0.00 0.00 90 1012.8
20240624053008 80 106 0.0 0.0 0.00 0.00 0.00 89 1013.4
20240624051549 80 137 0.0 0.0 0.00 0.00 0.00 89 1012.9
20240624051511 80 106 0.0 0.0 0.00 0.00 0.00 89 1013.3
20240624050051 80 137 0.0 0.0 0.00 0.00 0.00 89 1012.9
20240624050016 80 106 0.0 0.0 0.00 0.00 0.00 88 1013.4
20240624044546 81 137 0.0 0.0 0.00 0.00 0.00 88 1012.8
20240624044504 81 106 0.0 0.0 0.00 0.00 0.00 88 1013.3
20240624043046 81 137 0.0 0.0 0.00 0.00 0.00 88 1012.8
20240624043005 81 106 0.0 0.0 0.00 0.00 0.00 87 1013.4
20240624041545 81 137 0.0 0.0 0.00 0.00 0.00 87 1012.8
20240624041508 81 106 0.0 0.0 0.00 0.00 0.00 87 1013.5
20240624040104 82 137 0.0 0.0 0.00 0.00 0.00 86 1012.8
20240624040008 82 106 0.0 0.0 0.00 0.00 0.00 86 1013.4
20240624034546 82 137 0.0 0.0 0.00 0.00 0.00 85 1012.6
20240624034511 82 105 0.0 0.0 0.00 0.00 0.00 84 1013.3
20240624033044 82 137 0.0 0.0 0.00 0.00 0.00 83 1012.5
20240624033010 83 106 0.0 0.0 0.00 0.00 0.00 83 1012.9
20240624031549 84 134 0.0 0.0 0.00 0.00 0.00 80 1012.3
20240624031504 84 103 0.0 0.0 0.00 0.00 0.00 79 1012.7
20240624030042 85 127 0.0 1.0 0.00 0.00 0.00 80 1012.1
20240624030010 85 96 0.0 1.0 0.00 0.00 0.00 79 1012.7
20240624024545 85 127 0.0 2.0 0.00 0.00 0.00 79 1012.0
20240624024508 85 98 0.0 2.0 0.00 0.00 0.00 79 1012.4
20240624023042 86 128 0.0 1.0 0.00 0.00 0.00 78 1011.9
20240624023017 86 97 0.0 2.0 0.00 0.00 0.00 77 1012.3
20240624021541 87 129 0.0 1.0 0.00 0.00 0.00 76 1011.8
20240624021517 87 99 0.0 1.0 0.00 0.00 0.00 75 1012.1
20240624020040 88 132 0.0 1.0 0.00 0.00 0.00 73 1011.6
20240624020009 88 101 0.0 1.0 0.00 0.00 0.00 73 1012.0
20240624014548 88 134 0.0 0.0 0.00 0.00 0.00 71 1011.5
20240624014508 89 104 0.0 0.0 0.00 0.00 0.00 70 1012.1
20240624013039 90 131 0.0 1.0 0.00 0.00 0.00 70 1011.5
20240624013010 90 94 0.0 1.0 0.00 0.00 0.00 69 1012.0
20240624011542 92 113 0.0 1.0 0.00 0.00 0.00 66 1011.4
20240624011526 92 82 0.0 0.0 0.00 0.00 0.00 65 1011.9
20240624010042 94 113 0.0 0.0 0.00 0.00 0.00 62 1011.6
20240624010015 94 82 0.0 0.0 0.00 0.00 0.00 62 1012.1
20240624004534 94 113 0.0 1.0 0.00 0.00 0.00 62 1011.6
20240624004513 94 82 0.0 1.0 0.00 0.00 0.00 61 1012.2
20240624003125 95 160 0.0 0.0 0.00 0.00 0.00 61 1011.5
20240624003030 95 129 0.0 1.0 0.00 0.00 0.00 61 1012.1
20240624001524 94 162 0.0 0.0 0.00 0.00 0.00 63 1011.5
20240624001507 94 131 0.0 0.0 0.00 0.00 0.00 62 1012.1
20240624000123 94 126 0.0 1.0 0.00 0.00 0.00 60 1011.4
20240624000012 94 103 0.0 1.0 0.00 0.00 0.00 60 1012.1
20240623234600 94 122 0.0 3.0 0.00 0.00 0.00 61 1011.5
20240623234510 94 89 0.0 3.0 0.00 0.00 0.00 60 1012.0
20240623233015 94 127 0.0 7.0 0.00 0.00 0.00 61 1011.6
20240623233010 94 84 0.0 7.0 0.00 0.00 0.00 60 1011.9
20240623231537 94 129 0.0 3.0 0.00 0.00 0.00 60 1011.7
20240623231511 94 92 0.0 2.0 0.00 0.00 0.00 59 1011.9
20240623230038 94 122 0.0 1.0 0.00 0.00 0.00 60 1011.7
20240623230010 94 91 0.0 1.0 0.00 0.00 0.00 60 1012.1
20240623224618 94 141 0.0 7.0 0.00 0.00 0.00 57 1011.5
20240623224509 95 94 2.0 7.0 0.00 0.00 0.00 56 1012.1
20240623223014 95 104 0.0 3.0 0.00 0.00 0.00 57 1011.7
20240623223008 95 79 0.0 5.0 0.00 0.00 0.00 57 1012.2
20240623221541 94 104 0.0 5.0 0.00 0.00 0.00 57 1011.9
20240623221506 94 100 0.0 5.0 0.00 0.00 0.00 57 1012.4
20240623220011 94 91 0.0 4.0 0.00 0.00 0.00 58 1012.2
20240623220003 94 122 0.0 4.0 0.00 0.00 0.00 58 1011.9
20240623214550 93 121 0.0 3.0 0.00 0.00 0.00 59 1012.1
20240623214513 93 87 0.0 3.0 0.00 0.00 0.00 61 1012.5
20240623213054 92 124 0.0 2.0 0.00 0.00 0.00 62 1012.2
20240623213013 92 86 0.0 1.0 0.00 0.00 0.00 59 1012.6
20240623211550 92 131 0.0 1.0 0.00 0.00 0.00 62 1012.2
20240623211509 92 101 0.0 1.0 0.00 0.00 0.00 61 1012.8
20240623210047 92 118 0.0 3.0 0.00 0.00 0.00 62 1012.3
20240623210008 92 86 0.0 3.0 0.00 0.00 0.00 60 1012.7
20240623204544 92 122 0.0 3.0 0.00 0.00 0.00 61 1012.5
20240623204509 92 85 0.0 4.0 0.00 0.00 0.00 60 1012.9
20240623203046 93 132 1.0 5.0 0.00 0.00 0.00 57 1012.6
20240623203009 93 77 0.0 5.0 0.00 0.00 0.00 58 1013.0
20240623201543 93 125 0.0 5.0 0.00 0.00 0.00 58 1012.5
20240623201510 93 84 1.0 5.0 0.00 0.00 0.00 56 1013.0
20240623200039 95 124 2.0 6.0 0.00 0.00 0.00 54 1012.6
20240623200012 95 82 1.0 6.0 0.00 0.00 0.00 54 1013.2
20240623194610 95 241 0.0 6.0 0.00 0.00 0.00 53 1012.8
20240623194504 95 110 0.0 6.0 0.00 0.00 0.00 53 1013.3
20240623193022 94 110 1.0 6.0 0.00 0.00 0.00 53 1012.9
20240623193002 94 76 0.0 5.0 0.00 0.00 0.00 53 1013.3
20240623191526 95 241 0.0 1.0 0.00 0.00 0.00 53 1013.0
20240623191506 95 203 0.0 1.0 0.00 0.00 0.00 53 1013.4
20240623190054 93 245 3.0 8.0 0.00 0.00 0.00 54 1013.2
20240623190010 93 205 4.0 8.0 0.00 0.00 0.00 54 1013.5
20240623184527 93 216 0.0 4.0 0.00 0.01 0.00 56 1013.2
20240623184506 93 248 0.0 7.0 0.00 0.00 0.00 57 1013.7
20240623183023 92 250 0.0 6.0 0.00 0.01 0.00 56 1013.6
20240623183003 92 211 0.0 9.0 0.00 0.00 0.00 56 1013.9
20240623181523 91 255 2.0 9.0 0.00 0.01 0.00 60 1013.5
20240623181504 91 219 3.0 9.0 0.00 0.00 0.00 57 1014.0
20240623180018 91 210 1.0 7.0 0.00 0.01 0.00 60 1013.9
20240623180002 91 200 1.0 12.0 0.00 0.01 0.00 60 1014.3
20240623174538 90 238 3.0 11.0 0.00 0.01 0.00 62 1013.9
20240623174502 90 201 4.0 11.0 0.00 0.01 0.00 62 1014.4
20240623173022 90 240 4.0 7.0 0.00 0.01 0.00 62 1014.1
20240623173006 90 191 5.0 7.0 0.00 0.01 0.00 61 1014.6
20240623171511 89 238 0.0 10.0 0.00 0.01 0.00 64 1014.3
20240623171505 89 214 0.0 10.0 0.00 0.01 0.00 63 1014.8
20240623170009 88 241 3.0 8.0 0.00 0.01 0.00 65 1014.4
20240623170003 88 212 3.0 8.0 0.00 0.01 0.00 66 1015.0
20240623164508 88 241 2.0 8.0 0.00 0.01 0.00 67 1014.5
20240623164505 88 201 2.0 8.0 0.00 0.01 0.00 66 1015.1
20240623163011 87 194 2.0 9.0 0.00 0.01 0.00 67 1015.1
20240623163004 87 226 1.0 8.0 0.00 0.01 0.00 68 1014.5
20240623161615 87 225 3.0 9.0 0.00 0.01 0.00 68 1014.5
20240623161502 87 205 2.0 9.0 0.00 0.01 0.00 68 1015.1
20240623160024 87 295 0.0 9.0 0.00 0.01 0.00 68 1014.4
20240623160009 87 232 1.0 9.0 0.00 0.01 0.00 68 1015.0
20240623154545 86 238 5.0 10.0 0.00 0.01 0.00 69 1014.4
20240623154509 86 214 6.0 10.0 0.00 0.01 0.00 69 1015.0
20240623153039 85 222 5.0 10.0 0.00 0.01 0.00 69 1014.4
20240623153008 85 195 5.0 10.0 0.00 0.01 0.00 69 1014.9
20240623151534 85 245 4.0 11.0 0.00 0.01 0.00 73 1014.4
20240623151505 85 214 5.0 11.0 0.00 0.01 0.00 71 1014.8
20240623150056 85 242 1.0 6.0 0.00 0.01 0.00 74 1014.3
20240623150004 85 217 2.0 6.0 0.00 0.01 0.00 72 1014.9
20240623144603 84 226 3.0 8.0 0.00 0.01 0.00 74 1014.4
20240623144514 84 200 3.0 8.0 0.00 0.01 0.00 73 1014.9
20240623143007 84 174 3.0 10.0 0.00 0.01 0.00 72 1014.7
20240623143002 84 205 2.0 10.0 0.00 0.01 0.00 72 1014.3
20240623141546 84 252 6.0 10.0 0.00 0.01 0.00 72 1014.2
20240623141507 84 234 6.0 10.0 0.00 0.01 0.00 72 1014.7